sensor_id;sensor_type;location;lat;lon;timestamp;pressure;altitude;pressure_sealevel;temperature;humidity
10261;BME280;5175;42.606;23.388;2023-02-19T00:01:51;94051.81;;;7.10;68.06
10261;BME280;5175;42.606;23.388;2023-02-19T00:04:19;94031.91;;;7.39;66.29
10261;BME280;5175;42.606;23.388;2023-02-19T00:06:47;94016.09;;;7.22;67.67
10261;BME280;5175;42.606;23.388;2023-02-19T00:09:16;94016.31;;;7.16;67.67
10261;BME280;5175;42.606;23.388;2023-02-19T00:11:44;94027.47;;;7.44;66.42
10261;BME280;5175;42.606;23.388;2023-02-19T00:14:14;94026.00;;;7.32;66.66
10261;BME280;5175;42.606;23.388;2023-02-19T00:16:41;94015.78;;;7.14;67.60
10261;BME280;5175;42.606;23.388;2023-02-19T00:19:12;94027.56;;;7.28;66.61
10261;BME280;5175;42.606;23.388;2023-02-19T00:21:39;94018.03;;;7.32;66.35
10261;BME280;5175;42.606;23.388;2023-02-19T00:24:07;94016.81;;;7.39;66.27
10261;BME280;5175;42.606;23.388;2023-02-19T00:26:37;94022.19;;;7.49;65.93
10261;BME280;5175;42.606;23.388;2023-02-19T00:29:05;94008.06;;;7.44;65.07
10261;BME280;5175;42.606;23.388;2023-02-19T00:31:33;94019.84;;;7.58;64.77
10261;BME280;5175;42.606;23.388;2023-02-19T00:34:02;94014.97;;;7.45;65.46
10261;BME280;5175;42.606;23.388;2023-02-19T00:36:33;94005.84;;;7.31;66.05
10261;BME280;5175;42.606;23.388;2023-02-19T00:39:00;94017.41;;;7.20;67.15
10261;BME280;5175;42.606;23.388;2023-02-19T00:41:27;94000.69;;;7.19;66.94
10261;BME280;5175;42.606;23.388;2023-02-19T00:43:55;94000.09;;;7.12;67.45
10261;BME280;5175;42.606;23.388;2023-02-19T00:46:24;93995.78;;;7.06;67.84
10261;BME280;5175;42.606;23.388;2023-02-19T00:48:51;93997.34;;;7.02;68.09
10261;BME280;5175;42.606;23.388;2023-02-19T00:51:19;93998.19;;;7.08;67.88
10261;BME280;5175;42.606;23.388;2023-02-19T00:53:47;93999.03;;;6.86;68.95
10261;BME280;5175;42.606;23.388;2023-02-19T00:56:14;93990.53;;;6.84;68.30
10261;BME280;5175;42.606;23.388;2023-02-19T00:58:41;93984.53;;;6.94;68.87
10261;BME280;5175;42.606;23.388;2023-02-19T01:01:08;93982.63;;;6.89;68.85
10261;BME280;5175;42.606;23.388;2023-02-19T01:03:36;93985.78;;;6.86;68.38
10261;BME280;5175;42.606;23.388;2023-02-19T01:06:04;93980.25;;;6.88;68.45
10261;BME280;5175;42.606;23.388;2023-02-19T01:08:32;93988.69;;;6.85;69.04
10261;BME280;5175;42.606;23.388;2023-02-19T01:11:02;93990.50;;;6.79;69.35
10261;BME280;5175;42.606;23.388;2023-02-19T01:13:29;93975.63;;;6.78;69.58
10261;BME280;5175;42.606;23.388;2023-02-19T01:16:02;93971.03;;;6.69;70.53
10261;BME280;5175;42.606;23.388;2023-02-19T01:18:29;93973.94;;;6.67;70.39
10261;BME280;5175;42.606;23.388;2023-02-19T01:20:56;93994.84;;;6.64;70.29
10261;BME280;5175;42.606;23.388;2023-02-19T01:23:23;93964.41;;;6.71;69.44
10261;BME280;5175;42.606;23.388;2023-02-19T01:25:50;93957.97;;;6.62;70.82
10261;BME280;5175;42.606;23.388;2023-02-19T01:28:18;93976.47;;;6.57;71.15
10261;BME280;5175;42.606;23.388;2023-02-19T01:30:44;93987.44;;;6.66;70.75
10261;BME280;5175;42.606;23.388;2023-02-19T01:33:11;93990.13;;;6.71;69.78
10261;BME280;5175;42.606;23.388;2023-02-19T01:35:38;93998.78;;;6.61;70.71
10261;BME280;5175;42.606;23.388;2023-02-19T01:38:05;94003.53;;;6.59;70.43
10261;BME280;5175;42.606;23.388;2023-02-19T01:40:33;93997.81;;;6.67;70.10
10261;BME280;5175;42.606;23.388;2023-02-19T01:43:00;93996.88;;;6.57;70.32
10261;BME280;5175;42.606;23.388;2023-02-19T01:45:29;94020.31;;;6.65;70.59
10261;BME280;5175;42.606;23.388;2023-02-19T01:48:01;94022.44;;;6.68;70.36
10261;BME280;5175;42.606;23.388;2023-02-19T01:50:33;94026.91;;;6.41;71.15
10261;BME280;5175;42.606;23.388;2023-02-19T01:53:03;94036.94;;;6.39;71.42
10261;BME280;5175;42.606;23.388;2023-02-19T01:55:32;94055.38;;;6.28;72.08
10261;BME280;5175;42.606;23.388;2023-02-19T01:58:01;94055.16;;;6.13;72.97
10261;BME280;5175;42.606;23.388;2023-02-19T02:00:30;94038.47;;;5.96;74.11
10261;BME280;5175;42.606;23.388;2023-02-19T02:02:58;94044.25;;;5.93;74.33
10261;BME280;5175;42.606;23.388;2023-02-19T02:05:36;94031.28;;;5.75;74.96
10261;BME280;5175;42.606;23.388;2023-02-19T02:08:05;94028.16;;;5.45;76.80
10261;BME280;5175;42.606;23.388;2023-02-19T02:10:49;94033.53;;;5.50;77.48
10261;BME280;5175;42.606;23.388;2023-02-19T02:13:17;94018.59;;;5.27;78.01
10261;BME280;5175;42.606;23.388;2023-02-19T02:15:51;94015.16;;;5.27;79.32
10261;BME280;5175;42.606;23.388;2023-02-19T02:18:27;94046.44;;;5.63;77.26
10261;BME280;5175;42.606;23.388;2023-02-19T02:24:07;94039.78;;;5.77;76.22
10261;BME280;5175;42.606;23.388;2023-02-19T02:26:54;94020.19;;;5.78;75.74
10261;BME280;5175;42.606;23.388;2023-02-19T02:30:00;94031.03;;;5.93;75.16
10261;BME280;5175;42.606;23.388;2023-02-19T02:32:32;94024.78;;;5.66;77.46
10261;BME280;5175;42.606;23.388;2023-02-19T02:35:06;94020.63;;;5.87;76.16
10261;BME280;5175;42.606;23.388;2023-02-19T02:37:36;94020.53;;;5.98;75.15
10261;BME280;5175;42.606;23.388;2023-02-19T02:40:05;94026.13;;;6.02;75.02
10261;BME280;5175;42.606;23.388;2023-02-19T02:42:32;94024.97;;;6.14;74.22
10261;BME280;5175;42.606;23.388;2023-02-19T02:45:22;94029.97;;;6.11;74.72
10261;BME280;5175;42.606;23.388;2023-02-19T02:48:06;94024.47;;;6.17;74.12
10261;BME280;5175;42.606;23.388;2023-02-19T02:50:39;94020.53;;;6.20;74.39
10261;BME280;5175;42.606;23.388;2023-02-19T02:53:10;94020.44;;;6.32;73.02
10261;BME280;5175;42.606;23.388;2023-02-19T02:55:56;94010.38;;;6.34;72.46
10261;BME280;5175;42.606;23.388;2023-02-19T02:58:25;94011.75;;;6.36;72.13
10261;BME280;5175;42.606;23.388;2023-02-19T03:00:56;94001.94;;;6.15;73.69
10261;BME280;5175;42.606;23.388;2023-02-19T03:03:46;94008.53;;;6.34;72.98
10261;BME280;5175;42.606;23.388;2023-02-19T03:06:16;94009.84;;;6.32;72.99
10261;BME280;5175;42.606;23.388;2023-02-19T03:08:48;94014.59;;;5.91;75.73
10261;BME280;5175;42.606;23.388;2023-02-19T03:11:18;94022.50;;;6.08;74.85
10261;BME280;5175;42.606;23.388;2023-02-19T03:14:05;94007.97;;;6.10;74.41
10261;BME280;5175;42.606;23.388;2023-02-19T03:16:55;94019.78;;;6.03;75.51
10261;BME280;5175;42.606;23.388;2023-02-19T03:19:52;94032.63;;;6.11;74.39
10261;BME280;5175;42.606;23.388;2023-02-19T03:22:21;94021.88;;;6.01;74.66
10261;BME280;5175;42.606;23.388;2023-02-19T03:24:52;94025.09;;;5.86;75.73
10261;BME280;5175;42.606;23.388;2023-02-19T03:27:40;94035.38;;;5.83;75.54
10261;BME280;5175;42.606;23.388;2023-02-19T03:30:11;94048.81;;;5.81;76.71
10261;BME280;5175;42.606;23.388;2023-02-19T03:32:45;94049.38;;;5.83;76.19
10261;BME280;5175;42.606;23.388;2023-02-19T03:35:17;94053.91;;;5.83;76.62
10261;BME280;5175;42.606;23.388;2023-02-19T03:37:51;94046.28;;;5.53;77.57
10261;BME280;5175;42.606;23.388;2023-02-19T03:40:20;94058.56;;;5.59;77.53
10261;BME280;5175;42.606;23.388;2023-02-19T03:42:57;94058.69;;;5.52;78.04
10261;BME280;5175;42.606;23.388;2023-02-19T03:45:34;94063.91;;;5.47;78.27
10261;BME280;5175;42.606;23.388;2023-02-19T03:48:21;94071.38;;;5.50;78.58
10261;BME280;5175;42.606;23.388;2023-02-19T03:50:57;94058.53;;;5.42;78.42
10261;BME280;5175;42.606;23.388;2023-02-19T03:53:30;94061.44;;;5.41;78.86
10261;BME280;5175;42.606;23.388;2023-02-19T03:56:05;94071.59;;;5.32;78.83
10261;BME280;5175;42.606;23.388;2023-02-19T03:58:39;94075.13;;;5.38;79.17
10261;BME280;5175;42.606;23.388;2023-02-19T04:01:11;94071.34;;;5.17;80.25
10261;BME280;5175;42.606;23.388;2023-02-19T04:03:45;94081.47;;;5.08;80.86
10261;BME280;5175;42.606;23.388;2023-02-19T04:06:17;94079.44;;;5.11;80.48
10261;BME280;5175;42.606;23.388;2023-02-19T04:08:48;94083.47;;;5.01;80.96
10261;BME280;5175;42.606;23.388;2023-02-19T04:11:18;94092.66;;;5.11;81.09
10261;BME280;5175;42.606;23.388;2023-02-19T04:13:50;94085.47;;;4.94;81.86
10261;BME280;5175;42.606;23.388;2023-02-19T04:16:23;94091.50;;;5.06;81.56
10261;BME280;5175;42.606;23.388;2023-02-19T04:18:55;94101.34;;;4.94;81.86
10261;BME280;5175;42.606;23.388;2023-02-19T04:21:25;94096.50;;;4.91;81.97
10261;BME280;5175;42.606;23.388;2023-02-19T04:23:56;94092.38;;;4.95;82.09
10261;BME280;5175;42.606;23.388;2023-02-19T04:26:24;94087.91;;;4.84;82.31
10261;BME280;5175;42.606;23.388;2023-02-19T04:28:52;94098.16;;;4.81;83.12
10261;BME280;5175;42.606;23.388;2023-02-19T04:31:19;94095.97;;;4.78;83.01
10261;BME280;5175;42.606;23.388;2023-02-19T04:33:46;94107.22;;;4.85;82.84
10261;BME280;5175;42.606;23.388;2023-02-19T04:36:14;94110.88;;;4.95;82.51
10261;BME280;5175;42.606;23.388;2023-02-19T04:38:42;94111.47;;;4.86;82.87
10261;BME280;5175;42.606;23.388;2023-02-19T04:41:09;94107.50;;;4.60;84.30
10261;BME280;5175;42.606;23.388;2023-02-19T04:43:35;94106.28;;;4.51;84.86
10261;BME280;5175;42.606;23.388;2023-02-19T04:46:02;94104.41;;;4.75;83.87
10261;BME280;5175;42.606;23.388;2023-02-19T04:48:29;94101.78;;;4.91;82.45
10261;BME280;5175;42.606;23.388;2023-02-19T04:50:56;94102.34;;;4.93;82.19
10261;BME280;5175;42.606;23.388;2023-02-19T04:53:24;94102.03;;;4.90;82.41
10261;BME280;5175;42.606;23.388;2023-02-19T04:55:50;94119.28;;;4.92;82.62
10261;BME280;5175;42.606;23.388;2023-02-19T04:58:19;94110.78;;;4.90;82.76
10261;BME280;5175;42.606;23.388;2023-02-19T05:00:50;94097.31;;;4.92;81.89
10261;BME280;5175;42.606;23.388;2023-02-19T05:03:17;94107.97;;;4.69;84.08
10261;BME280;5175;42.606;23.388;2023-02-19T05:05:44;94105.66;;;4.72;83.76
10261;BME280;5175;42.606;23.388;2023-02-19T05:08:11;94111.63;;;4.68;84.25
10261;BME280;5175;42.606;23.388;2023-02-19T05:10:39;94117.81;;;4.85;83.11
10261;BME280;5175;42.606;23.388;2023-02-19T05:13:05;94108.88;;;5.02;81.88
10261;BME280;5175;42.606;23.388;2023-02-19T05:15:32;94119.09;;;4.82;83.45
10261;BME280;5175;42.606;23.388;2023-02-19T05:17:59;94121.53;;;4.61;84.83
10261;BME280;5175;42.606;23.388;2023-02-19T05:20:25;94130.69;;;4.81;84.15
10261;BME280;5175;42.606;23.388;2023-02-19T05:22:52;94134.66;;;4.95;83.40
10261;BME280;5175;42.606;23.388;2023-02-19T05:25:19;94112.19;;;4.81;84.06
10261;BME280;5175;42.606;23.388;2023-02-19T05:27:47;94135.94;;;4.93;83.83
10261;BME280;5175;42.606;23.388;2023-02-19T05:30:13;94128.88;;;5.10;83.81
10261;BME280;5175;42.606;23.388;2023-02-19T05:32:40;94149.28;;;5.26;83.79
10261;BME280;5175;42.606;23.388;2023-02-19T05:35:07;94125.41;;;5.38;83.56
10261;BME280;5175;42.606;23.388;2023-02-19T05:37:34;94137.13;;;6.03;79.78
10261;BME280;5175;42.606;23.388;2023-02-19T05:40:00;94133.91;;;6.18;79.00
10261;BME280;5175;42.606;23.388;2023-02-19T05:42:27;94144.72;;;6.33;78.52
10261;BME280;5175;42.606;23.388;2023-02-19T05:44:55;94147.97;;;6.78;76.87
10261;BME280;5175;42.606;23.388;2023-02-19T05:47:22;94148.19;;;7.15;75.14
10261;BME280;5175;42.606;23.388;2023-02-19T05:49:49;94146.88;;;7.39;73.46
10261;BME280;5175;42.606;23.388;2023-02-19T05:52:15;94150.31;;;7.67;72.23
10261;BME280;5175;42.606;23.388;2023-02-19T05:54:42;94145.94;;;7.82;71.25
10261;BME280;5175;42.606;23.388;2023-02-19T05:57:09;94146.00;;;7.87;70.57
10261;BME280;5175;42.606;23.388;2023-02-19T05:59:35;94150.47;;;8.13;69.00
10261;BME280;5175;42.606;23.388;2023-02-19T06:02:03;94131.25;;;8.06;69.08
10261;BME280;5175;42.606;23.388;2023-02-19T06:04:30;94148.75;;;8.29;69.01
10261;BME280;5175;42.606;23.388;2023-02-19T06:06:57;94153.38;;;8.44;67.99
10261;BME280;5175;42.606;23.388;2023-02-19T06:09:23;94157.16;;;8.58;67.29
10261;BME280;5175;42.606;23.388;2023-02-19T06:11:50;94166.03;;;8.73;66.73
10261;BME280;5175;42.606;23.388;2023-02-19T06:14:17;94161.00;;;8.72;66.19
10261;BME280;5175;42.606;23.388;2023-02-19T06:16:43;94172.00;;;8.86;65.94
10261;BME280;5175;42.606;23.388;2023-02-19T06:19:12;94181.34;;;8.93;66.01
10261;BME280;5175;42.606;23.388;2023-02-19T06:21:38;94167.78;;;8.95;65.19
10261;BME280;5175;42.606;23.388;2023-02-19T06:24:06;94171.81;;;9.07;64.75
10261;BME280;5175;42.606;23.388;2023-02-19T06:26:33;94182.28;;;9.19;64.26
10261;BME280;5175;42.606;23.388;2023-02-19T06:29:00;94174.84;;;9.26;63.78
10261;BME280;5175;42.606;23.388;2023-02-19T06:31:27;94157.00;;;9.26;62.93
10261;BME280;5175;42.606;23.388;2023-02-19T06:33:54;94184.28;;;9.64;61.92
10261;BME280;5175;42.606;23.388;2023-02-19T06:36:22;94185.09;;;9.64;61.67
10261;BME280;5175;42.606;23.388;2023-02-19T06:38:49;94184.78;;;9.61;61.21
10261;BME280;5175;42.606;23.388;2023-02-19T06:41:16;94177.56;;;9.46;61.85
10261;BME280;5175;42.606;23.388;2023-02-19T06:43:43;94166.91;;;9.41;62.49
10261;BME280;5175;42.606;23.388;2023-02-19T06:46:11;94179.72;;;9.49;62.13
10261;BME280;5175;42.606;23.388;2023-02-19T06:48:39;94173.88;;;9.52;61.96
10261;BME280;5175;42.606;23.388;2023-02-19T06:51:06;94180.03;;;9.63;61.12
10261;BME280;5175;42.606;23.388;2023-02-19T06:53:34;94185.13;;;9.79;60.62
10261;BME280;5175;42.606;23.388;2023-02-19T06:56:03;94173.44;;;9.90;60.34
10261;BME280;5175;42.606;23.388;2023-02-19T06:58:30;94190.22;;;9.91;60.42
10261;BME280;5175;42.606;23.388;2023-02-19T07:00:57;94191.81;;;10.07;60.12
10261;BME280;5175;42.606;23.388;2023-02-19T07:03:24;94191.09;;;10.22;59.13
10261;BME280;5175;42.606;23.388;2023-02-19T07:05:52;94188.69;;;10.30;59.53
10261;BME280;5175;42.606;23.388;2023-02-19T07:08:18;94179.34;;;10.38;59.17
10261;BME280;5175;42.606;23.388;2023-02-19T07:10:53;94200.41;;;10.64;58.04
10261;BME280;5175;42.606;23.388;2023-02-19T07:13:20;94191.34;;;10.71;57.78
10261;BME280;5175;42.606;23.388;2023-02-19T07:15:47;94176.69;;;10.68;58.35
10261;BME280;5175;42.606;23.388;2023-02-19T07:18:14;94195.31;;;10.88;60.02
10261;BME280;5175;42.606;23.388;2023-02-19T07:20:41;94193.69;;;11.02;58.67
10261;BME280;5175;42.606;23.388;2023-02-19T07:23:07;94186.19;;;11.04;56.80
10261;BME280;5175;42.606;23.388;2023-02-19T07:25:36;94175.50;;;11.19;56.15
10261;BME280;5175;42.606;23.388;2023-02-19T07:28:04;94188.22;;;11.38;55.40
10261;BME280;5175;42.606;23.388;2023-02-19T07:30:31;94171.38;;;11.47;56.03
10261;BME280;5175;42.606;23.388;2023-02-19T07:32:58;94175.00;;;11.66;54.62
10261;BME280;5175;42.606;23.388;2023-02-19T07:35:25;94164.06;;;11.68;53.95
10261;BME280;5175;42.606;23.388;2023-02-19T07:37:52;94171.53;;;11.76;53.78
10261;BME280;5175;42.606;23.388;2023-02-19T07:40:19;94157.09;;;11.72;53.28
10261;BME280;5175;42.606;23.388;2023-02-19T07:42:46;94165.75;;;12.03;52.39
10261;BME280;5175;42.606;23.388;2023-02-19T07:45:14;94166.50;;;12.08;51.92
10261;BME280;5175;42.606;23.388;2023-02-19T07:47:40;94165.81;;;12.31;51.39
10261;BME280;5175;42.606;23.388;2023-02-19T07:50:07;94160.66;;;12.40;50.87
10261;BME280;5175;42.606;23.388;2023-02-19T07:52:34;94177.97;;;12.52;50.63
10261;BME280;5175;42.606;23.388;2023-02-19T07:55:01;94172.53;;;12.63;50.00
10261;BME280;5175;42.606;23.388;2023-02-19T07:57:27;94179.34;;;12.79;49.81
10261;BME280;5175;42.606;23.388;2023-02-19T07:59:55;94165.22;;;12.97;49.34
10261;BME280;5175;42.606;23.388;2023-02-19T08:02:24;94165.41;;;13.05;48.48
10261;BME280;5175;42.606;23.388;2023-02-19T08:05:08;94166.63;;;13.18;47.86
10261;BME280;5175;42.606;23.388;2023-02-19T08:07:36;94177.06;;;13.43;47.65
10261;BME280;5175;42.606;23.388;2023-02-19T08:10:03;94167.38;;;13.71;47.06
10261;BME280;5175;42.606;23.388;2023-02-19T08:12:54;94148.88;;;13.69;46.28
10261;BME280;5175;42.606;23.388;2023-02-19T08:15:39;94167.16;;;13.86;46.53
10261;BME280;5175;42.606;23.388;2023-02-19T08:18:08;94159.63;;;14.07;45.50
10261;BME280;5175;42.606;23.388;2023-02-19T08:20:35;94157.59;;;14.17;45.58
10261;BME280;5175;42.606;23.388;2023-02-19T08:23:02;94156.06;;;14.30;45.24
10261;BME280;5175;42.606;23.388;2023-02-19T08:25:29;94171.97;;;14.45;44.54
10261;BME280;5175;42.606;23.388;2023-02-19T08:27:56;94174.59;;;14.64;44.71
10261;BME280;5175;42.606;23.388;2023-02-19T08:30:24;94169.84;;;14.74;44.16
10261;BME280;5175;42.606;23.388;2023-02-19T08:32:51;94168.38;;;14.68;44.72
10261;BME280;5175;42.606;23.388;2023-02-19T08:35:20;94162.41;;;14.71;44.83
10261;BME280;5175;42.606;23.388;2023-02-19T08:37:47;94172.81;;;14.91;44.47
10261;BME280;5175;42.606;23.388;2023-02-19T08:40:13;94164.28;;;14.71;45.15
10261;BME280;5175;42.606;23.388;2023-02-19T08:42:40;94161.38;;;14.99;44.72
10261;BME280;5175;42.606;23.388;2023-02-19T08:45:07;94178.81;;;15.16;43.50
10261;BME280;5175;42.606;23.388;2023-02-19T08:47:35;94163.25;;;15.13;43.50
10261;BME280;5175;42.606;23.388;2023-02-19T08:50:03;94169.56;;;15.22;43.50
10261;BME280;5175;42.606;23.388;2023-02-19T08:52:32;94150.00;;;14.57;45.53
10261;BME280;5175;42.606;23.388;2023-02-19T08:54:59;94166.84;;;14.94;45.37
10261;BME280;5175;42.606;23.388;2023-02-19T08:57:26;94167.34;;;14.96;45.15
10261;BME280;5175;42.606;23.388;2023-02-19T08:59:54;94155.44;;;15.30;43.03
10261;BME280;5175;42.606;23.388;2023-02-19T09:02:21;94154.06;;;15.46;42.59
10261;BME280;5175;42.606;23.388;2023-02-19T09:04:48;94158.47;;;15.55;42.83
10261;BME280;5175;42.606;23.388;2023-02-19T09:07:15;94139.47;;;15.06;43.57
10261;BME280;5175;42.606;23.388;2023-02-19T09:09:43;94138.97;;;15.18;43.94
10261;BME280;5175;42.606;23.388;2023-02-19T09:12:11;94141.41;;;15.46;42.59
10261;BME280;5175;42.606;23.388;2023-02-19T09:14:38;94141.69;;;15.72;41.95
10261;BME280;5175;42.606;23.388;2023-02-19T09:17:06;94132.91;;;15.80;41.84
10261;BME280;5175;42.606;23.388;2023-02-19T09:19:34;94119.47;;;15.80;41.82
10261;BME280;5175;42.606;23.388;2023-02-19T09:22:01;94131.59;;;16.05;41.26
10261;BME280;5175;42.606;23.388;2023-02-19T09:24:29;94114.03;;;16.07;42.11
10261;BME280;5175;42.606;23.388;2023-02-19T09:26:57;94121.34;;;16.15;40.97
10261;BME280;5175;42.606;23.388;2023-02-19T09:29:25;94123.28;;;16.15;42.25
10261;BME280;5175;42.606;23.388;2023-02-19T09:31:55;94127.41;;;16.57;40.94
10261;BME280;5175;42.606;23.388;2023-02-19T09:34:22;94120.13;;;16.57;40.27
10261;BME280;5175;42.606;23.388;2023-02-19T09:36:49;94119.50;;;16.60;40.13
10261;BME280;5175;42.606;23.388;2023-02-19T09:39:16;94113.38;;;16.68;40.78
10261;BME280;5175;42.606;23.388;2023-02-19T09:41:44;94116.03;;;16.46;40.86
10261;BME280;5175;42.606;23.388;2023-02-19T09:44:17;94111.63;;;16.64;40.53
10261;BME280;5175;42.606;23.388;2023-02-19T09:46:48;94103.69;;;16.45;40.77
10261;BME280;5175;42.606;23.388;2023-02-19T09:49:18;94097.31;;;15.97;41.42
10261;BME280;5175;42.606;23.388;2023-02-19T09:51:48;94103.84;;;15.41;42.20
10261;BME280;5175;42.606;23.388;2023-02-19T09:54:20;94098.69;;;15.58;42.58
10261;BME280;5175;42.606;23.388;2023-02-19T09:56:48;94105.91;;;15.72;42.66
10261;BME280;5175;42.606;23.388;2023-02-19T09:59:20;94101.41;;;15.94;41.50
10261;BME280;5175;42.606;23.388;2023-02-19T10:01:48;94088.16;;;16.20;41.15
10261;BME280;5175;42.606;23.388;2023-02-19T10:04:19;94086.53;;;16.41;40.92
10261;BME280;5175;42.606;23.388;2023-02-19T10:06:46;94085.31;;;16.69;39.72
10261;BME280;5175;42.606;23.388;2023-02-19T10:09:20;94077.06;;;16.97;39.78
10261;BME280;5175;42.606;23.388;2023-02-19T10:11:48;94074.31;;;17.19;38.88
10261;BME280;5175;42.606;23.388;2023-02-19T10:14:20;94047.34;;;17.19;38.78
10261;BME280;5175;42.606;23.388;2023-02-19T10:16:51;94062.69;;;17.58;38.04
10261;BME280;5175;42.606;23.388;2023-02-19T10:19:18;94055.94;;;17.29;38.64
10261;BME280;5175;42.606;23.388;2023-02-19T10:21:45;94056.63;;;17.52;38.28
10261;BME280;5175;42.606;23.388;2023-02-19T10:24:16;94052.16;;;17.39;38.20
10261;BME280;5175;42.606;23.388;2023-02-19T10:26:46;94047.09;;;17.37;38.09
10261;BME280;5175;42.606;23.388;2023-02-19T10:29:12;94053.34;;;17.55;37.72
10261;BME280;5175;42.606;23.388;2023-02-19T10:31:40;94048.47;;;17.18;38.52
10261;BME280;5175;42.606;23.388;2023-02-19T10:34:17;94039.63;;;16.95;38.51
10261;BME280;5175;42.606;23.388;2023-02-19T10:36:46;94025.47;;;17.20;38.61
10261;BME280;5175;42.606;23.388;2023-02-19T10:39:33;94019.41;;;17.23;37.90
10261;BME280;5175;42.606;23.388;2023-02-19T10:42:03;94017.84;;;17.31;38.32
10261;BME280;5175;42.606;23.388;2023-02-19T10:44:34;94017.78;;;17.53;37.90
10261;BME280;5175;42.606;23.388;2023-02-19T10:47:05;94017.06;;;17.22;37.92
10261;BME280;5175;42.606;23.388;2023-02-19T10:49:36;94007.59;;;17.50;37.60
10261;BME280;5175;42.606;23.388;2023-02-19T10:52:13;94006.66;;;17.55;37.52
10261;BME280;5175;42.606;23.388;2023-02-19T10:54:42;94003.03;;;17.76;37.46
10261;BME280;5175;42.606;23.388;2023-02-19T10:57:23;93990.19;;;17.82;37.67
10261;BME280;5175;42.606;23.388;2023-02-19T10:59:55;93994.13;;;17.93;36.98
10261;BME280;5175;42.606;23.388;2023-02-19T11:02:24;93986.06;;;17.84;37.71
10261;BME280;5175;42.606;23.388;2023-02-19T11:05:04;93979.50;;;18.20;37.73
10261;BME280;5175;42.606;23.388;2023-02-19T11:07:32;93968.19;;;18.43;37.40
10261;BME280;5175;42.606;23.388;2023-02-19T11:09:59;93963.25;;;18.54;36.87
10261;BME280;5175;42.606;23.388;2023-02-19T11:12:28;93964.19;;;18.49;36.15
10261;BME280;5175;42.606;23.388;2023-02-19T11:15:19;93965.66;;;18.30;36.15
10261;BME280;5175;42.606;23.388;2023-02-19T11:17:55;93961.97;;;18.43;36.60
10261;BME280;5175;42.606;23.388;2023-02-19T11:20:22;93957.53;;;18.38;35.83
10261;BME280;5175;42.606;23.388;2023-02-19T11:22:50;93957.09;;;18.10;36.44
10261;BME280;5175;42.606;23.388;2023-02-19T11:25:20;93945.16;;;18.29;36.07
10261;BME280;5175;42.606;23.388;2023-02-19T11:27:55;93939.09;;;18.40;36.89
10261;BME280;5175;42.606;23.388;2023-02-19T11:30:39;93944.16;;;18.42;36.40
10261;BME280;5175;42.606;23.388;2023-02-19T11:33:20;93936.69;;;18.56;37.36
10261;BME280;5175;42.606;23.388;2023-02-19T11:35:48;93933.09;;;18.72;35.00
10261;BME280;5175;42.606;23.388;2023-02-19T11:38:17;93932.47;;;18.75;36.00
10261;BME280;5175;42.606;23.388;2023-02-19T11:40:51;93919.06;;;19.08;36.45
10261;BME280;5175;42.606;23.388;2023-02-19T11:43:34;93915.38;;;18.92;35.24
10261;BME280;5175;42.606;23.388;2023-02-19T11:46:08;93911.59;;;18.85;37.62
10261;BME280;5175;42.606;23.388;2023-02-19T11:49:02;93918.97;;;19.05;35.13
10261;BME280;5175;42.606;23.388;2023-02-19T11:51:41;93907.75;;;19.15;35.72
10261;BME280;5175;42.606;23.388;2023-02-19T11:54:22;93890.66;;;19.02;36.68
10261;BME280;5175;42.606;23.388;2023-02-19T11:56:57;93907.94;;;18.81;34.81
10261;BME280;5175;42.606;23.388;2023-02-19T11:59:32;93900.97;;;18.80;36.15
10261;BME280;5175;42.606;23.388;2023-02-19T12:02:26;93892.56;;;19.02;35.39
10261;BME280;5175;42.606;23.388;2023-02-19T12:05:11;93888.09;;;19.26;35.08
10261;BME280;5175;42.606;23.388;2023-02-19T12:08:27;93869.47;;;19.04;36.45
10261;BME280;5175;42.606;23.388;2023-02-19T12:11:09;93871.19;;;19.29;36.38
10261;BME280;5175;42.606;23.388;2023-02-19T12:13:50;93871.88;;;19.68;34.53
10261;BME280;5175;42.606;23.388;2023-02-19T12:16:22;93882.69;;;19.68;34.99
10261;BME280;5175;42.606;23.388;2023-02-19T12:19:01;93873.47;;;19.69;34.26
10261;BME280;5175;42.606;23.388;2023-02-19T12:21:53;93856.84;;;19.58;35.54
10261;BME280;5175;42.606;23.388;2023-02-19T12:27:52;93853.88;;;19.51;33.90
10261;BME280;5175;42.606;23.388;2023-02-19T12:30:33;93847.41;;;19.64;34.55
10261;BME280;5175;42.606;23.388;2023-02-19T12:36:13;93833.66;;;19.69;33.71
10261;BME280;5175;42.606;23.388;2023-02-19T12:38:52;93833.84;;;19.64;33.61
10261;BME280;5175;42.606;23.388;2023-02-19T12:41:28;93810.56;;;19.51;33.55
10261;BME280;5175;42.606;23.388;2023-02-19T12:44:00;93823.75;;;19.85;33.47
10261;BME280;5175;42.606;23.388;2023-02-19T12:46:32;93817.81;;;20.04;34.88
10261;BME280;5175;42.606;23.388;2023-02-19T12:49:08;93810.34;;;20.01;32.92
10261;BME280;5175;42.606;23.388;2023-02-19T12:51:40;93818.44;;;20.34;33.24
10261;BME280;5175;42.606;23.388;2023-02-19T12:54:13;93809.28;;;20.26;33.15
10261;BME280;5175;42.606;23.388;2023-02-19T12:56:46;93801.28;;;20.42;32.84
10261;BME280;5175;42.606;23.388;2023-02-19T12:59:20;93798.69;;;20.33;32.68
10261;BME280;5175;42.606;23.388;2023-02-19T13:01:50;93794.16;;;20.25;32.43
10261;BME280;5175;42.606;23.388;2023-02-19T13:04:25;93787.69;;;20.18;32.85
10261;BME280;5175;42.606;23.388;2023-02-19T13:06:57;93780.97;;;20.36;33.51
10261;BME280;5175;42.606;23.388;2023-02-19T13:09:32;93775.72;;;20.19;33.42
10261;BME280;5175;42.606;23.388;2023-02-19T13:12:03;93776.53;;;20.31;32.93
10261;BME280;5175;42.606;23.388;2023-02-19T13:14:35;93773.50;;;20.45;33.28
10261;BME280;5175;42.606;23.388;2023-02-19T13:17:11;93776.53;;;20.55;32.62
10261;BME280;5175;42.606;23.388;2023-02-19T13:19:44;93771.47;;;20.30;31.77
10261;BME280;5175;42.606;23.388;2023-02-19T13:22:18;93760.28;;;20.55;32.60
10261;BME280;5175;42.606;23.388;2023-02-19T13:25:08;93759.50;;;20.67;32.37
10261;BME280;5175;42.606;23.388;2023-02-19T13:27:51;93759.22;;;20.84;32.62
10261;BME280;5175;42.606;23.388;2023-02-19T13:30:34;93746.69;;;20.80;32.58
10261;BME280;5175;42.606;23.388;2023-02-19T13:33:17;93743.69;;;21.09;31.93
10261;BME280;5175;42.606;23.388;2023-02-19T13:36:03;93744.38;;;21.06;31.32